Time;durP1;ratioP1;P1;durP2;ratioP2;P2;SDS_P1;SDS_P2;PMS_P1;PMS_P2;Temp;Humidity;BMP_temperature;BMP_pressure;BME280_temperature;BME280_humidity;BME280_pressure;Samples;Min_cycle;Max_cycle;Signal;HPM_P1;HPM_P2
2022/01/02 00:01:52;;;;;;;5.18;3.88;;;;;;;;;;5040371;28;20051;-79
2022/01/02 00:04:20;;;;;;;6.22;3.95;;;;;;;;;;5035532;28;20098;-79
2022/01/02 00:06:50;;;;;;;6.45;4.38;;;;;;;;;;5053128;28;20037;-79
2022/01/02 00:09:31;;;;;;;7.63;4.18;;;;;;;;;;5038248;28;20048;-80
2022/01/02 00:12:03;;;;;;;5.95;3.05;;;;;;;;;;5053969;28;20051;-79
2022/01/02 00:14:32;;;;;;;8.80;4.15;;;;;;;;;;5038768;28;20045;-80
2022/01/02 00:16:58;;;;;;;10.30;5.47;;;;;;;;;;5055586;28;20475;-79
2022/01/02 00:19:30;;;;;;;7.05;4.35;;;11.20;99.90;;;;;;5053667;28;20044;-80
2022/01/02 00:22:00;;;;;;;5.90;3.30;;;;;;;;;;5050645;28;20411;-80
2022/01/02 00:24:27;;;;;;;7.22;3.53;;;;;;;;;;5057923;28;20463;-79
2022/01/02 00:26:54;;;;;;;9.30;3.88;;;;;;;;;;5054229;28;20474;-80
2022/01/02 00:29:21;;;;;;;8.70;3.60;;;;;;;;;;5039538;28;20503;-80
2022/01/02 00:31:47;;;;;;;5.10;2.97;;;;;;;;;;5056643;28;20036;-80
2022/01/02 00:34:13;;;;;;;7.95;4.40;;;;;;;;;;5052577;28;20048;-79
2022/01/02 00:36:40;;;;;;;6.95;4.30;;;;;;;;;;5035330;28;20415;-79
2022/01/02 00:39:06;;;;;;;17.42;4.15;;;;;;;;;;5054183;28;20453;-79
2022/01/02 00:41:48;;;;;;;7.38;3.65;;;;;;;;;;5057749;28;20078;-78
2022/01/02 00:44:18;;;;;;;7.60;4.15;;;;;;;;;;5056381;28;20666;-79
2022/01/02 00:46:58;;;;;;;5.95;3.15;;;;;;;;;;5056503;28;20153;-78
2022/01/02 00:49:25;;;;;;;7.00;3.80;;;10.80;99.90;;;;;;5053274;28;20037;-78
2022/01/02 00:51:54;;;;;;;7.15;3.33;;;;;;;;;;5042518;28;20040;-78
2022/01/02 00:54:22;;;;;;;8.55;4.57;;;;;;;;;;5061325;28;20049;-78
2022/01/02 00:56:51;;;;;;;9.63;4.97;;;;;;;;;;5056029;28;20037;-78
2022/01/02 00:59:46;;;;;;;7.55;4.20;;;10.80;99.90;;;;;;5040872;28;20156;-78
2022/01/02 01:02:17;;;;;;;10.15;5.88;;;10.80;99.90;;;;;;5060745;28;20536;-78
2022/01/02 01:04:44;;;;;;;10.05;4.68;;;;;;;;;;5042651;28;20041;-80
2022/01/02 01:07:10;;;;;;;11.20;4.53;;;;;;;;;;5061161;28;20580;-78
2022/01/02 01:09:36;;;;;;;8.38;5.10;;;;;;;;;;5055856;28;20044;-78
2022/01/02 01:12:04;;;;;;;11.07;5.53;;;;;;;;;;5056007;28;20065;-78
2022/01/02 01:14:30;;;;;;;9.55;4.82;;;;;;;;;;5059564;28;20319;-78
2022/01/02 01:16:57;;;;;;;10.10;4.80;;;;;;;;;;5046247;28;20067;-78
2022/01/02 01:19:24;;;;;;;9.32;4.90;;;;;;;;;;5056932;28;20478;-78
2022/01/02 01:21:51;;;;;;;16.02;4.75;;;;;;;;;;5058961;28;20084;-78
2022/01/02 01:24:18;;;;;;;8.23;5.05;;;10.70;99.90;;;;;;5057679;28;20045;-78
2022/01/02 01:26:46;;;;;;;10.88;4.72;;;;;;;;;;5056556;28;20036;-78
2022/01/02 01:29:13;;;;;;;16.85;4.57;;;;;;;;;;5061525;28;20056;-78
2022/01/02 01:31:39;;;;;;;11.05;5.35;;;;;;;;;;5056043;28;20102;-78
2022/01/02 01:34:06;;;;;;;12.55;4.95;;;;;;;;;;5058721;28;20516;-78
2022/01/02 01:36:32;;;;;;;8.98;5.38;;;;;;;;;;5061338;28;20098;-79
2022/01/02 01:38:58;;;;;;;12.02;4.95;;;;;;;;;;5033595;28;20078;-79
2022/01/02 01:41:29;;;;;;;14.30;4.43;;;;;;;;;;5054628;28;20114;-78
2022/01/02 01:44:09;;;;;;;10.77;5.65;;;;;;;;;;5054446;28;20048;-78
2022/01/02 01:46:36;;;;;;;10.70;5.72;;;;;;;;;;5060569;28;20299;-78
2022/01/02 01:49:02;;;;;;;10.90;6.13;;;;;;;;;;5059704;28;20571;-79
2022/01/02 01:51:28;;;;;;;8.90;6.00;;;;;;;;;;5057667;28;20057;-78
2022/01/02 01:53:54;;;;;;;10.73;5.45;;;;;;;;;;5056251;28;20521;-78
2022/01/02 01:56:21;;;;;;;12.25;5.57;;;;;;;;;;5060697;28;20056;-79
2022/01/02 01:58:47;;;;;;;9.10;5.28;;;;;;;;;;5057695;28;20411;-79
2022/01/02 02:01:13;;;;;;;12.52;5.90;;;;;;;;;;5042318;28;20048;-78
2022/01/02 02:03:40;;;;;;;15.65;5.95;;;;;;;;;;5038803;28;20040;-79
2022/01/02 02:06:06;;;;;;;12.88;6.03;;;;;;;;;;5053181;28;20044;-78
2022/01/02 02:08:32;;;;;;;14.00;6.30;;;;;;;;;;5053733;28;20507;-79
2022/01/02 02:10:58;;;;;;;9.02;4.88;;;;;;;;;;5056770;28;20078;-79
2022/01/02 02:13:25;;;;;;;13.10;5.82;;;;;;;;;;5059339;28;20446;-80
2022/01/02 02:15:52;;;;;;;11.98;5.63;;;;;;;;;;5057186;28;20067;-80
2022/01/02 02:18:18;;;;;;;9.27;5.53;;;;;;;;;;5043741;28;20084;-79
2022/01/02 02:20:45;;;;;;;9.20;5.63;;;;;;;;;;5055472;28;20080;-79
2022/01/02 02:23:13;;;;;;;10.48;5.88;;;;;;;;;;5033192;28;20049;-79
2022/01/02 02:25:39;;;;;;;12.90;6.13;;;;;;;;;;5042952;28;20048;-79
2022/01/02 02:28:12;;;;;;;9.50;5.82;;;;;;;;;;5055824;28;20107;-79
2022/01/02 02:30:40;;;;;;;10.80;6.25;;;;;;;;;;5058779;28;20633;-78
2022/01/02 02:33:07;;;;;;;11.23;6.10;;;;;;;;;;5057650;28;20511;-79
2022/01/02 02:35:34;;;;;;;11.43;5.80;;;;;;;;;;5057319;28;20142;-80
2022/01/02 02:38:00;;;;;;;12.18;6.97;;;;;;;;;;5057207;28;20452;-80
2022/01/02 02:40:28;;;;;;;14.77;6.55;;;;;;;;;;5063100;28;20083;-81
2022/01/02 02:51:11;;;;;;;13.38;6.60;;;10.40;99.90;;;;;;5055435;28;20538;-82
2022/01/02 02:53:39;;;;;;;11.63;6.22;;;;;;;;;;5035004;28;20188;-83
2022/01/02 02:56:19;;;;;;;13.45;7.45;;;;;;;;;;5021052;28;20041;-81
2022/01/02 02:58:45;;;;;;;11.18;6.43;;;;;;;;;;5052633;28;20044;-80
2022/01/02 03:01:16;;;;;;;8.20;6.03;;;10.30;99.90;;;;;;5054524;28;20423;-81
2022/01/02 03:03:43;;;;;;;8.00;4.20;;;;;;;;;;5059181;28;20135;-80
2022/01/02 03:06:10;;;;;;;9.82;6.93;;;;;;;;;;5060446;28;20059;-80
2022/01/02 03:08:37;;;;;;;9.27;5.72;;;10.30;99.90;;;;;;5043055;28;20100;-80
2022/01/02 03:11:04;;;;;;;7.13;4.38;;;;;;;;;;5040567;28;20060;-80
2022/01/02 03:13:30;;;;;;;8.80;6.38;;;;;;;;;;5042579;28;20049;-80
2022/01/02 03:15:56;;;;;;;7.68;5.10;;;;;;;;;;5057441;28;20127;-80
2022/01/02 03:18:22;;;;;;;12.25;6.50;;;;;;;;;;5039468;28;20070;-80
2022/01/02 03:20:49;;;;;;;8.98;4.90;;;;;;;;;;5062625;28;20110;-80
2022/01/02 03:23:15;;;;;;;9.68;6.10;;;;;;;;;;5041034;28;20111;-79
2022/01/02 03:25:41;;;;;;;7.32;5.15;;;;;;;;;;5064748;28;20046;-80
2022/01/02 03:28:07;;;;;;;8.43;4.65;;;;;;;;;;5042159;28;20067;-80
2022/01/02 03:30:33;;;;;;;7.32;5.22;;;;;;;;;;5059485;28;20083;-80
2022/01/02 03:33:00;;;;;;;8.63;5.57;;;;;;;;;;5060045;28;20031;-79
2022/01/02 03:35:26;;;;;;;9.32;4.93;;;;;;;;;;5057498;28;20578;-79
2022/01/02 03:37:52;;;;;;;9.55;5.60;;;;;;;;;;5052523;28;20112;-80
2022/01/02 03:40:18;;;;;;;9.48;5.20;;;;;;;;;;5034090;28;20044;-79
2022/01/02 03:42:44;;;;;;;10.23;4.88;;;;;;;;;;5054895;28;20127;-81
2022/01/02 03:45:11;;;;;;;13.65;6.20;;;;;;;;;;5056477;28;20064;-80
2022/01/02 03:47:37;;;;;;;8.35;5.18;;;;;;;;;;5037488;28;20044;-80
2022/01/02 03:50:04;;;;;;;11.50;6.65;;;;;;;;;;5057608;28;20052;-81
2022/01/02 03:52:31;;;;;;;9.27;6.30;;;;;;;;;;5043174;28;20568;-81
2022/01/02 03:54:57;;;;;;;11.25;5.78;;;;;;;;;;5055782;28;20131;-81
2022/01/02 03:57:23;;;;;;;11.10;6.75;;;;;;;;;;5035179;28;20045;-82
2022/01/02 03:59:50;;;;;;;8.55;5.07;;;;;;;;;;5057950;28;20485;-81
2022/01/02 04:02:16;;;;;;;12.80;7.10;;;;;;;;;;5039068;28;20295;-81
2022/01/02 04:04:42;;;;;;;10.73;6.10;;;;;;;;;;5051579;28;20079;-82
2022/01/02 04:07:08;;;;;;;9.35;5.70;;;;;;;;;;5050235;28;20091;-82
2022/01/02 04:09:34;;;;;;;12.18;6.07;;;;;;;;;;5054640;28;20029;-81
2022/01/02 04:12:01;;;;;;;10.65;6.13;;;;;;;;;;5054255;28;20033;-82
2022/01/02 04:14:27;;;;;;;9.77;5.57;;;;;;;;;;5041588;28;20504;-82
2022/01/02 04:16:53;;;;;;;10.88;5.18;;;;;;;;;;5050459;28;20036;-80
2022/01/02 04:19:19;;;;;;;9.07;4.93;;;;;;;;;;5041520;28;20052;-80
2022/01/02 04:21:46;;;;;;;8.43;5.40;;;;;;;;;;5041453;28;20044;-80
2022/01/02 04:24:12;;;;;;;11.00;5.57;;;;;;;;;;5052305;28;20137;-80
2022/01/02 04:26:38;;;;;;;10.52;5.40;;;;;;;;;;5073309;28;20032;-80
2022/01/02 04:29:05;;;;;;;9.05;5.25;;;;;;;;;;5057424;28;20051;-80
2022/01/02 04:31:32;;;;;;;10.43;6.32;;;;;;;;;;5038479;28;20045;-79
2022/01/02 04:33:58;;;;;;;8.07;5.05;;;;;;;;;;5041655;28;20513;-80
2022/01/02 04:36:24;;;;;;;7.13;4.10;;;;;;;;;;5053564;28;20052;-80
2022/01/02 04:38:50;;;;;;;8.70;4.35;;;;;;;;;;5042443;28;20055;-80
2022/01/02 04:41:16;;;;;;;6.45;3.97;;;;;;;;;;5040926;28;20044;-80
2022/01/02 04:43:43;;;;;;;5.55;3.53;;;;;;;;;;5034815;28;20036;-80
2022/01/02 04:46:09;;;;;;;10.07;5.22;;;;;;;;;;5055395;28;20036;-80
2022/01/02 04:48:35;;;;;;;6.55;3.95;;;;;;;;;;5056490;28;20044;-81
2022/01/02 04:51:01;;;;;;;4.72;3.47;;;;;;;;;;5041077;28;20404;-81
2022/01/02 04:53:27;;;;;;;10.75;5.22;;;;;;;;;;5057645;28;20047;-81
2022/01/02 04:55:54;;;;;;;7.15;4.50;;;;;;;;;;5058121;28;20639;-81
2022/01/02 04:58:20;;;;;;;7.70;4.22;;;;;;;;;;5037263;28;20055;-83
2022/01/02 05:00:46;;;;;;;9.48;5.00;;;;;;;;;;5054879;28;20491;-82
2022/01/02 05:03:12;;;;;;;10.18;5.78;;;;;;;;;;5041605;28;20115;-82
2022/01/02 05:05:38;;;;;;;8.07;4.40;;;;;;;;;;5055013;28;20128;-82
2022/01/02 05:08:04;;;;;;;11.43;5.97;;;;;;;;;;5055672;28;20043;-82
2022/01/02 05:10:30;;;;;;;9.10;5.32;;;;;;;;;;5053806;28;20404;-81
2022/01/02 05:12:56;;;;;;;13.38;6.10;;;;;;;;;;5042054;28;20051;-82
2022/01/02 05:15:23;;;;;;;13.50;6.25;;;;;;;;;;5039869;28;20040;-82
2022/01/02 05:17:49;;;;;;;5.82;3.22;;;;;;;;;;5055744;28;20048;-82
2022/01/02 05:20:15;;;;;;;6.78;3.70;;;;;;;;;;5054593;28;20064;-82
2022/01/02 05:22:42;;;;;;;7.82;4.57;;;;;;;;;;5058284;28;20045;-81
2022/01/02 05:25:08;;;;;;;9.93;4.15;;;;;;;;;;5055664;28;20131;-81
2022/01/02 05:27:34;;;;;;;10.60;5.80;;;;;;;;;;5050714;28;20049;-82
2022/01/02 05:30:00;;;;;;;9.23;4.85;;;;;;;;;;5053508;28;20557;-82
2022/01/02 05:32:26;;;;;;;12.82;5.18;;;;;;;;;;5042485;28;20052;-83
2022/01/02 05:34:52;;;;;;;9.52;5.07;;;;;;;;;;5056733;28;20532;-83
2022/01/02 05:37:18;;;;;;;14.73;7.78;;;;;;;;;;5040522;28;20089;-82
2022/01/02 05:39:44;;;;;;;13.85;3.90;;;;;;;;;;5060568;28;20041;-82
2022/01/02 05:42:11;;;;;;;7.13;3.92;;;;;;;;;;5059427;28;20198;-82
2022/01/02 05:44:37;;;;;;;9.45;4.53;;;;;;;;;;5060596;28;20105;-83
2022/01/02 05:47:03;;;;;;;9.35;3.97;;;;;;;;;;5057122;28;20048;-82
2022/01/02 05:49:29;;;;;;;8.05;4.25;;;;;;;;;;5041804;28;20037;-82
2022/01/02 05:51:55;;;;;;;7.65;4.40;;;;;;;;;;5060599;28;20090;-83
2022/01/02 05:54:21;;;;;;;11.07;4.50;;;;;;;;;;5061047;28;20055;-84
2022/01/02 05:56:47;;;;;;;13.27;5.63;;;;;;;;;;5058914;28;20048;-83
2022/01/02 05:59:13;;;;;;;6.30;3.58;;;;;;;;;;5061569;28;20164;-83
2022/01/02 06:01:40;;;;;;;9.93;4.20;;;;;;;;;;5057539;28;20047;-83
2022/01/02 06:04:06;;;;;;;9.95;4.15;;;;;;;;;;5044465;28;20458;-83
2022/01/02 06:06:32;;;;;;;10.40;4.30;;;;;;;;;;5059275;28;20043;-82
2022/01/02 06:08:58;;;;;;;10.75;5.32;;;;;;;;;;5056834;28;20083;-83
2022/01/02 06:11:25;;;;;;;7.63;4.10;;;;;;;;;;5057498;28;20123;-82
2022/01/02 06:13:51;;;;;;;10.65;3.97;;;;;;;;;;5057982;28;20044;-82
2022/01/02 06:16:17;;;;;;;6.03;3.13;;;;;;;;;;5042821;28;20043;-83
2022/01/02 06:18:44;;;;;;;7.65;3.13;;;;;;;;;;5043286;28;20098;-83
2022/01/02 06:21:10;;;;;;;8.23;4.20;;;;;;;;;;5043968;28;20044;-83
2022/01/02 06:23:36;;;;;;;6.28;3.50;;;;;;;;;;5062302;28;20137;-84
2022/01/02 06:26:04;;;;;;;8.07;3.33;;;;;;;;;;5053068;28;20169;-83
2022/01/02 06:28:30;;;;;;;6.03;3.65;;;;;;;;;;5059965;28;20082;-84
2022/01/02 06:30:56;;;;;;;11.95;5.45;;;;;;;;;;5045468;28;20040;-84
2022/01/02 06:33:22;;;;;;;3.88;2.40;;;;;;;;;;5040810;28;20506;-84
2022/01/02 06:35:49;;;;;;;6.82;2.90;;;;;;;;;;5046155;28;20521;-84
2022/01/02 06:38:18;;;;;;;9.02;4.38;;;;;;;;;;5057495;28;20051;-84
2022/01/02 06:40:44;;;;;;;10.00;4.85;;;;;;;;;;5040052;28;20432;-83
2022/01/02 06:43:13;;;;;;;6.03;2.95;;;;;;;;;;5056828;28;20047;-84
2022/01/02 06:45:39;;;;;;;9.80;3.85;;;;;;;;;;5054056;28;20159;-85
2022/01/02 06:48:05;;;;;;;3.53;2.50;;;;;;;;;;5055157;28;20468;-84
2022/01/02 06:50:32;;;;;;;6.57;3.58;;;;;;;;;;5058247;28;20036;-84
2022/01/02 06:52:58;;;;;;;6.40;3.97;;;;;;;;;;5045191;28;20613;-84
2022/01/02 06:55:24;;;;;;;6.53;3.58;;;;;;;;;;5039554;28;20040;-84
2022/01/02 06:57:51;;;;;;;6.13;3.08;;;;;;;;;;5032912;28;20048;-85
2022/01/02 07:00:17;;;;;;;8.02;3.30;;;;;;;;;;5043473;28;20139;-84
2022/01/02 07:02:43;;;;;;;4.85;2.63;;;;;;;;;;5057685;28;20145;-84
2022/01/02 07:05:09;;;;;;;8.75;3.42;;;;;;;;;;5058339;28;20521;-84
2022/01/02 07:07:42;;;;;;;7.65;2.75;;;;;;;;;;5042869;28;20047;-84
2022/01/02 07:10:10;;;;;;;8.02;2.80;;;10.60;99.90;;;;;;5040550;28;20056;-84
2022/01/02 07:12:37;;;;;;;11.25;3.38;;;;;;;;;;5057447;28;20423;-84
2022/01/02 07:15:04;;;;;;;10.65;3.40;;;;;;;;;;5039786;28;20045;-84
2022/01/02 07:17:30;;;;;;;6.50;2.80;;;;;;;;;;5052732;28;20572;-83
2022/01/02 07:19:56;;;;;;;12.10;3.00;;;;;;;;;;5057847;28;20059;-83
2022/01/02 07:22:22;;;;;;;8.73;3.25;;;;;;;;;;5056294;28;20506;-83
2022/01/02 07:24:51;;;;;;;8.18;2.90;;;;;;;;;;5057399;28;20052;-83
2022/01/02 07:27:20;;;;;;;6.57;3.45;;;;;;;;;;5041611;28;20525;-83
2022/01/02 07:29:47;;;;;;;6.20;2.85;;;;;;;;;;5055863;28;20063;-83
2022/01/02 07:32:14;;;;;;;5.18;3.08;;;;;;;;;;5036994;28;20040;-83
2022/01/02 07:34:40;;;;;;;7.60;2.88;;;;;;;;;;5058464;28;20044;-84
2022/01/02 07:37:07;;;;;;;12.98;4.60;;;;;;;;;;5058122;28;20048;-85
2022/01/02 07:39:33;;;;;;;15.73;5.28;;;;;;;;;;5065328;28;20052;-84
2022/01/02 07:41:59;;;;;;;16.17;5.32;;;;;;;;;;5079263;28;20047;-84
2022/01/02 07:44:25;;;;;;;9.35;4.88;;;;;;;;;;5054569;28;20109;-84
2022/01/02 07:46:51;;;;;;;8.85;4.60;;;;;;;;;;5039758;28;20040;-83
2022/01/02 07:49:17;;;;;;;7.20;2.97;;;;;;;;;;5059459;28;20040;-83
2022/01/02 07:51:44;;;;;;;15.25;6.63;;;;;;;;;;5057965;28;20478;-84
2022/01/02 07:54:12;;;;;;;11.98;5.00;;;;;;;;;;5042663;28;20048;-84
2022/01/02 07:56:38;;;;;;;7.55;3.05;;;;;;;;;;5059454;28;20395;-83
2022/01/02 07:59:05;;;;;;;11.68;5.15;;;;;;;;;;5040516;28;20044;-84
2022/01/02 08:01:31;;;;;;;11.20;5.40;;;;;;;;;;5025778;28;20067;-83
2022/01/02 08:03:57;;;;;;;7.65;2.75;;;;;;;;;;5059383;28;20067;-84
2022/01/02 08:06:23;;;;;;;5.55;2.25;;;;;;;;;;5053166;28;20478;-83
2022/01/02 08:08:49;;;;;;;6.00;2.10;;;;;;;;;;5057738;28;20033;-84
2022/01/02 08:11:16;;;;;;;9.93;2.00;;;;;;;;;;5058472;28;20045;-84
2022/01/02 08:13:43;;;;;;;3.22;1.30;;;;;;;;;;5051224;28;20084;-83
2022/01/02 08:16:09;;;;;;;1.90;0.95;;;;;;;;;;5059956;28;20052;-83
2022/01/02 08:18:36;;;;;;;3.53;1.25;;;;;;;;;;5057619;28;20036;-83
2022/01/02 08:21:02;;;;;;;2.47;1.60;;;;;;;;;;5042692;28;20162;-86
2022/01/02 08:23:28;;;;;;;4.93;1.60;;;;;;;;;;5042347;28;20066;-84
2022/01/02 08:25:54;;;;;;;5.70;2.30;;;;;;;;;;5058362;28;20044;-84
2022/01/02 08:28:20;;;;;;;5.13;2.30;;;;;;;;;;5060433;28;20048;-85
2022/01/02 08:30:47;;;;;;;3.80;2.60;;;;;;;;;;5042189;28;20579;-84
2022/01/02 08:33:14;;;;;;;5.53;2.15;;;;;;;;;;5044213;28;20132;-84
2022/01/02 08:35:41;;;;;;;3.30;2.00;;;;;;;;;;5043080;28;20138;-83
2022/01/02 08:38:07;;;;;;;5.07;2.67;;;;;;;;;;5054870;28;20052;-84
2022/01/02 08:40:33;;;;;;;6.00;2.95;;;;;;;;;;5041572;28;20040;-83
2022/01/02 08:42:59;;;;;;;8.02;2.92;;;;;;;;;;5056246;28;20087;-84
2022/01/02 08:45:25;;;;;;;5.13;2.38;;;;;;;;;;5055323;28;20041;-85
2022/01/02 08:47:51;;;;;;;3.15;1.98;;;;;;;;;;5056846;28;20125;-84
2022/01/02 08:50:18;;;;;;;5.50;2.13;;;;;;;;;;5041955;28;20136;-83
2022/01/02 08:52:44;;;;;;;7.15;2.42;;;;;;;;;;5057527;28;20032;-83
2022/01/02 08:55:10;;;;;;;5.35;2.42;;;;;;;;;;5044194;28;20105;-84
2022/01/02 08:57:36;;;;;;;5.97;2.33;;;;;;;;;;5051808;28;20122;-86
2022/01/02 09:00:04;;;;;;;3.30;2.25;;;;;;;;;;5039732;28;20495;-86
2022/01/02 09:02:30;;;;;;;4.60;2.15;;;;;;;;;;5059175;28;20052;-85
2022/01/02 09:04:56;;;;;;;3.33;1.90;;;;;;;;;;5040536;28;20059;-85
2022/01/02 09:07:22;;;;;;;4.72;2.22;;;;;;;;;;5041953;28;20036;-86
2022/01/02 09:09:48;;;;;;;5.18;2.17;;;;;;;;;;5037653;28;20491;-84
2022/01/02 09:12:15;;;;;;;4.45;2.25;;;;;;;;;;5059202;28;20044;-85
2022/01/02 09:14:41;;;;;;;3.85;2.47;;;10.80;99.90;;;;;;5044827;28;20041;-84
2022/01/02 09:17:08;;;;;;;2.67;1.90;;;;;;;;;;5060574;28;20040;-84
2022/01/02 09:19:34;;;;;;;4.43;2.17;;;;;;;;;;5057322;28;20040;-83
2022/01/02 09:22:00;;;;;;;4.43;2.53;;;;;;;;;;5045117;28;20072;-84
2022/01/02 09:24:44;;;;;;;3.95;2.55;;;10.80;99.90;;;;;;5051420;28;20182;-84
2022/01/02 09:27:11;;;;;;;5.25;3.33;;;;;;;;;;5042015;28;20057;-82
2022/01/02 09:29:37;;;;;;;5.60;2.35;;;;;;;;;;5060745;28;20113;-82
2022/01/02 09:32:04;;;;;;;6.45;2.55;;;;;;;;;;5051193;28;20068;-83
2022/01/02 09:34:30;;;;;;;5.85;2.45;;;;;;;;;;5058868;28;20036;-82
2022/01/02 09:36:56;;;;;;;4.63;2.70;;;;;;;;;;5067811;28;20093;-82
2022/01/02 09:39:23;;;;;;;6.47;2.83;;;;;;;;;;5060688;28;20519;-82
2022/01/02 09:41:49;;;;;;;5.97;3.00;;;;;;;;;;5059597;28;20158;-82
2022/01/02 09:44:15;;;;;;;4.22;2.13;;;;;;;;;;5044197;28;20044;-83
2022/01/02 09:46:42;;;;;;;7.50;2.72;;;;;;;;;;5057921;28;20083;-83
2022/01/02 09:49:09;;;;;;;5.78;2.38;;;;;;;;;;5060881;28;20051;-83
2022/01/02 09:51:35;;;;;;;6.45;3.45;;;;;;;;;;5042939;28;20415;-85
2022/01/02 09:54:01;;;;;;;5.03;2.42;;;;;;;;;;5036938;28;20048;-84
2022/01/02 09:56:33;;;;;;;6.97;3.33;;;;;;;;;;5056662;28;20052;-85
2022/01/02 09:59:02;;;;;;;7.07;3.22;;;;;;;;;;5063617;28;20076;-85
2022/01/02 10:01:30;;;;;;;7.78;3.38;;;;;;;;;;5047214;28;20101;-82
2022/01/02 10:03:57;;;;;;;6.78;3.30;;;;;;;;;;5039113;28;20040;-86
2022/01/02 10:06:38;;;;;;;7.57;4.18;;;;;;;;;;5050262;28;20487;-83
2022/01/02 10:09:05;;;;;;;8.13;4.05;;;;;;;;;;5062273;28;20090;-83
2022/01/02 10:11:33;;;;;;;9.50;3.65;;;;;;;;;;5058981;28;20029;-84
2022/01/02 10:14:05;;;;;;;7.63;3.92;;;;;;;;;;5060477;28;20513;-85
2022/01/02 10:16:33;;;;;;;11.02;4.32;;;;;;;;;;5062824;28;20215;-84
2022/01/02 10:19:20;;;;;;;10.85;4.55;;;;;;;;;;5044661;28;20175;-84
2022/01/02 10:22:00;;;;;;;6.80;3.72;;;;;;;;;;5048714;28;20813;-84
2022/01/02 10:24:27;;;;;;;9.45;4.60;;;;;;;;;;5046903;28;20546;-84
2022/01/02 10:27:12;;;;;;;14.50;4.07;;;;;;;;;;5062306;28;20432;-84
2022/01/02 10:29:41;;;;;;;11.93;4.88;;;10.00;99.90;;;;;;5054928;28;20468;-84
2022/01/02 10:32:28;;;;;;;11.95;5.32;;;10.60;99.90;;;;;;5042994;28;20068;-85
2022/01/02 10:35:06;;;;;;;9.13;3.83;;;;;;;;;;5056712;28;20104;-85
2022/01/02 10:37:32;;;;;;;13.35;4.63;;;;;;;;;;5056771;28;20888;-85
2022/01/02 10:39:58;;;;;;;15.68;4.82;;;;;;;;;;5060161;28;20044;-83
2022/01/02 10:42:25;;;;;;;14.77;4.38;;;;;;;;;;5063853;28;20799;-84
2022/01/02 10:44:51;;;;;;;14.32;3.42;;;;;;;;;;5058807;28;20047;-84
2022/01/02 10:47:21;;;;;;;13.27;4.57;;;;;;;;;;5052857;28;20095;-85
2022/01/02 10:50:04;;;;;;;14.38;3.90;;;10.90;99.90;;;;;;5057526;28;20052;-83
2022/01/02 10:52:32;;;;;;;12.32;3.72;;;;;;;;;;5060576;28;20518;-84
2022/01/02 10:55:00;;;;;;;10.20;4.07;;;;;;;;;;5055773;28;20124;-83
2022/01/02 10:57:27;;;;;;;19.48;4.55;;;;;;;;;;5040332;28;20045;-84
2022/01/02 10:59:57;;;;;;;22.20;5.22;;;;;;;;;;5055779;28;20555;-83
2022/01/02 11:02:24;;;;;;;13.77;5.05;;;;;;;;;;5060367;28;20052;-83
2022/01/02 11:05:03;;;;;;;19.83;4.13;;;;;;;;;;5057737;28;20032;-83
2022/01/02 11:07:36;;;;;;;19.88;3.65;;;;;;;;;;5045118;28;20119;-83
2022/01/02 11:10:03;;;;;;;15.40;5.38;;;;;;;;;;5059834;28;20044;-84
2022/01/02 11:12:29;;;;;;;14.40;3.58;;;;;;;;;;5059466;28;20071;-82
2022/01/02 11:14:56;;;;;;;11.98;3.55;;;;;;;;;;5061836;28;20166;-83
2022/01/02 11:17:22;;;;;;;10.70;2.90;;;;;;;;;;5058190;28;20041;-83
2022/01/02 11:19:49;;;;;;;16.98;4.03;;;;;;;;;;5045444;28;20051;-83
2022/01/02 11:22:22;;;;;;;12.80;3.78;;;;;;;;;;5064146;28;20150;-83
2022/01/02 11:24:55;;;;;;;15.50;3.95;;;;;;;;;;5061814;28;20085;-83
2022/01/02 11:27:42;;;;;;;14.10;4.13;;;;;;;;;;5065240;28;20718;-82
2022/01/02 11:30:30;;;;;;;13.88;4.05;;;11.00;99.90;;;;;;5061558;28;20063;-83
2022/01/02 11:33:03;;;;;;;14.13;3.72;;;;;;;;;;5060299;28;20055;-81
2022/01/02 11:35:31;;;;;;;12.60;3.47;;;;;;;;;;5039176;28;20053;-83
2022/01/02 11:38:07;;;;;;;17.60;4.78;;;;;;;;;;5043061;28;20051;-81
2022/01/02 11:40:43;;;;;;;16.73;4.13;;;;;;;;;;5040669;28;20082;-83
2022/01/02 11:43:09;;;;;;;13.85;3.72;;;;;;;;;;5058329;28;20127;-82
2022/01/02 11:45:35;;;;;;;21.88;4.63;;;;;;;;;;5056315;28;20588;-84
2022/01/02 11:48:21;;;;;;;19.80;4.85;;;;;;;;;;5059691;28;20471;-84
2022/01/02 11:50:49;;;;;;;19.40;3.72;;;;;;;;;;5044614;28;20047;-84
2022/01/02 11:53:19;;;;;;;18.58;4.10;;;;;;;;;;5053851;28;20066;-81
2022/01/02 11:55:46;;;;;;;15.68;3.47;;;;;;;;;;5053480;28;20044;-82
2022/01/02 11:58:13;;;;;;;22.13;4.95;;;;;;;;;;5053249;28;20402;-82
2022/01/02 12:00:41;;;;;;;13.00;3.65;;;;;;;;;;5059475;28;20495;-82
2022/01/02 12:03:27;;;;;;;9.73;2.90;;;;;;;;;;5061412;28;20040;-82
2022/01/02 12:06:32;;;;;;;14.30;3.88;;;;;;;;;;5041951;28;20040;-82
2022/01/02 12:08:58;;;;;;;14.15;3.92;;;;;;;;;;5032203;28;20161;-82
2022/01/02 12:11:31;;;;;;;20.00;5.10;;;;;;;;;;5058017;28;20131;-83
2022/01/02 12:14:11;;;;;;;27.25;5.57;;;;;;;;;;5054950;28;20045;-84
2022/01/02 12:16:42;;;;;;;19.15;4.15;;;;;;;;;;5034147;28;20053;-82
2022/01/02 12:19:09;;;;;;;18.15;2.92;;;;;;;;;;5051068;28;20080;-82
2022/01/02 12:21:36;;;;;;;20.60;3.58;;;;;;;;;;5039602;28;20929;-83
2022/01/02 12:24:04;;;;;;;12.60;2.28;;;;;;;;;;5054472;28;20036;-82
2022/01/02 12:26:30;;;;;;;18.48;3.03;;;;;;;;;;5053583;28;20052;-83
2022/01/02 12:29:06;;;;;;;14.55;2.83;;;12.70;99.90;;;;;;5057068;28;20067;-83
2022/01/02 12:31:32;;;;;;;14.38;2.50;;;;;;;;;;5058756;28;20097;-83
2022/01/02 12:34:06;;;;;;;18.17;2.60;;;;;;;;;;5057874;28;20075;-82
2022/01/02 12:36:33;;;;;;;18.08;4.05;;;12.60;99.90;;;;;;5048475;28;20397;-83
2022/01/02 12:39:02;;;;;;;17.15;2.55;;;;;;;;;;5047849;28;20725;-82
2022/01/02 12:41:29;;;;;;;15.02;2.42;;;;;;;;;;5047882;28;20041;-82
2022/01/02 12:43:57;;;;;;;12.10;2.45;;;;;;;;;;5048459;28;20471;-83
2022/01/02 12:46:33;;;;;;;11.40;1.80;;;;;;;;;;5054032;28;20036;-83
2022/01/02 12:49:00;;;;;;;9.48;1.45;;;;;;;;;;5055720;28;20036;-83
2022/01/02 12:51:30;;;;;;;12.80;1.90;;;;;;;;;;5042695;28;20529;-83
2022/01/02 12:54:20;;;;;;;12.88;2.45;;;11.80;99.90;;;;;;5055668;28;20041;-84
2022/01/02 12:56:48;;;;;;;11.68;2.60;;;;;;;;;;5055057;28;20798;-82
2022/01/02 12:59:31;;;;;;;15.70;2.25;;;;;;;;;;5055587;28;20470;-83
2022/01/02 13:02:03;;;;;;;11.10;3.00;;;;;;;;;;5049067;28;20522;-84
2022/01/02 13:04:34;;;;;;;10.05;1.83;;;;;;;;;;5061643;28;20574;-82
2022/01/02 13:07:12;;;;;;;9.80;2.17;;;;;;;;;;5064186;28;20037;-85
2022/01/02 13:09:43;;;;;;;10.77;1.95;;;;;;;;;;5055270;28;20037;-83
2022/01/02 13:12:11;;;;;;;12.45;2.17;;;;;;;;;;5062698;28;20040;-83
2022/01/02 13:14:41;;;;;;;15.77;1.85;;;;;;;;;;5059423;28;20055;-83
2022/01/02 13:17:16;;;;;;;12.20;1.98;;;12.50;99.90;;;;;;5046767;28;20052;-83
2022/01/02 13:19:44;;;;;;;13.73;2.47;;;;;;;;;;5054251;28;20102;-83
2022/01/02 13:22:15;;;;;;;14.90;3.10;;;;;;;;;;5055114;28;20512;-82
2022/01/02 13:24:41;;;;;;;17.80;2.63;;;;;;;;;;5039790;28;20037;-83
2022/01/02 13:27:08;;;;;;;12.57;2.65;;;;;;;;;;5054929;28;20231;-83
2022/01/02 13:29:35;;;;;;;18.10;2.67;;;;;;;;;;5052630;28;20037;-83
2022/01/02 13:32:15;;;;;;;12.70;2.47;;;;;;;;;;5058376;28;20033;-83
2022/01/02 13:34:42;;;;;;;19.70;3.35;;;;;;;;;;5059689;28;20423;-84
2022/01/02 13:37:09;;;;;;;9.05;2.03;;;;;;;;;;5045077;28;20044;-84
2022/01/02 13:39:47;;;;;;;14.23;2.47;;;12.60;99.90;;;;;;5063506;28;20052;-82
2022/01/02 13:42:15;;;;;;;12.80;2.42;;;;;;;;;;5046014;28;20483;-83
2022/01/02 13:44:48;;;;;;;8.98;1.63;;;;;;;;;;5058619;28;20044;-82
2022/01/02 13:47:14;;;;;;;16.35;2.05;;;12.00;99.90;;;;;;5060843;28;20642;-82
2022/01/02 13:49:40;;;;;;;9.13;1.55;;;;;;;;;;5060512;28;20037;-82
2022/01/02 13:52:06;;;;;;;16.98;2.15;;;;;;;;;;5056098;28;20055;-83
2022/01/02 13:54:33;;;;;;;12.13;2.13;;;;;;;;;;5044306;28;20068;-83
2022/01/02 13:56:59;;;;;;;12.38;2.03;;;;;;;;;;5055121;28;20044;-81
2022/01/02 13:59:26;;;;;;;12.13;1.98;;;;;;;;;;5045292;28;20128;-82
2022/01/02 14:01:52;;;;;;;12.57;1.50;;;;;;;;;;5062727;28;20388;-82
2022/01/02 14:04:20;;;;;;;8.05;1.40;;;;;;;;;;5042438;28;20502;-82
2022/01/02 14:06:46;;;;;;;11.90;1.90;;;;;;;;;;5061286;28;20465;-82
2022/01/02 14:09:14;;;;;;;11.90;1.42;;;;;;;;;;5062788;28;20045;-82
2022/01/02 14:11:41;;;;;;;9.50;1.25;;;;;;;;;;5063065;28;20534;-81
2022/01/02 14:14:22;;;;;;;9.15;1.55;;;;;;;;;;5064465;28;20052;-81
2022/01/02 14:17:13;;;;;;;11.80;2.35;;;10.40;99.90;;;;;;5053250;28;20076;-82
2022/01/02 14:19:47;;;;;;;9.68;1.70;;;9.30;99.90;;;;;;5061793;28;20041;-83
2022/01/02 14:22:15;;;;;;;14.30;1.75;;;;;;;;;;5037993;28;20587;-82
2022/01/02 14:24:42;;;;;;;10.02;1.63;;;;;;;;;;5061435;28;20475;-82
2022/01/02 14:27:08;;;;;;;6.38;1.38;;;;;;;;;;5060882;28;20151;-82
2022/01/02 14:29:34;;;;;;;10.45;1.15;;;9.20;99.90;;;;;;5061582;28;20054;-82
2022/01/02 14:32:01;;;;;;;10.15;1.70;;;;;;;;;;5053629;28;20147;-82
2022/01/02 14:34:28;;;;;;;8.80;1.17;;;;;;;;;;5029255;28;20044;-82
2022/01/02 14:36:54;;;;;;;14.70;1.98;;;;;;;;;;5061164;28;20462;-82
2022/01/02 14:39:20;;;;;;;12.38;2.15;;;;;;;;;;5039588;28;20104;-82
2022/01/02 14:41:46;;;;;;;8.68;0.90;;;;;;;;;;5044112;28;20059;-82
2022/01/02 14:44:13;;;;;;;9.80;1.77;;;;;;;;;;5037591;28;20041;-83